メインページ
METAR-TAF:

METAR-TAF

空港 :

Waterville Robert LaFleur Airport

Waterville, メイン州, アメリカ合衆国

緯度: 44-32N, 経度: 069-41W, 海抜: 101m

現時点の気象観測

当レポートは36分前の17:56(UTC)に作成
変向風 4kt
気温 26°C
湿度 58%
気圧 1020 hPa
視程: 16.1km
晴天

METAR: KWVL 261756Z AUTO VRB04KT 10SM CLR 26/17 A3013 RMK AO2 SLP227 T02560167 10261 20128 58015

時間: 14:32 (18:32 UTC)


TAF: 見つかりません

4,000以上の空港の気象観測と天気予報(METAR報とTAF報)

利用可能な観測所は地図上に黄色い丸と赤い丸で示す。

丸の上にカーソルを重ねると観測所名を参照できる。

次にクリックすると気象観測と天気予報を参照できる。

マップの切り替え:黒色「×」印の緑ボタンをクリックして拡大、「-」印の緑ボタンをクリックして縮小、緑色の三角印をクリックして隣りの地図に切り替え


METAR-TAF: